sensor_id;sensor_type;location;lat;lon;timestamp;P1;durP1;ratioP1;P2;durP2;ratioP2
4424;SDS011;2225;53.568;13.266;2024-03-02T00:00:07;73.07;;;40.53;;
4424;SDS011;2225;53.568;13.266;2024-03-02T00:02:45;68.70;;;39.30;;
4424;SDS011;2225;53.568;13.266;2024-03-02T00:05:20;78.73;;;41.13;;
4424;SDS011;2225;53.568;13.266;2024-03-02T00:07:54;78.23;;;37.70;;
4424;SDS011;2225;53.568;13.266;2024-03-02T00:10:24;73.87;;;39.20;;
4424;SDS011;2225;53.568;13.266;2024-03-02T00:12:57;72.07;;;39.70;;
4424;SDS011;2225;53.568;13.266;2024-03-02T00:15:33;80.10;;;42.30;;
4424;SDS011;2225;53.568;13.266;2024-03-02T00:18:10;83.10;;;41.07;;
4424;SDS011;2225;53.568;13.266;2024-03-02T00:20:39;82.67;;;40.57;;
4424;SDS011;2225;53.568;13.266;2024-03-02T00:23:07;66.30;;;38.80;;
4424;SDS011;2225;53.568;13.266;2024-03-02T00:25:44;69.63;;;39.70;;
4424;SDS011;2225;53.568;13.266;2024-03-02T00:28:17;86.10;;;41.60;;
4424;SDS011;2225;53.568;13.266;2024-03-02T00:31:03;81.70;;;41.83;;
4424;SDS011;2225;53.568;13.266;2024-03-02T00:33:46;69.23;;;38.77;;
4424;SDS011;2225;53.568;13.266;2024-03-02T00:36:15;72.33;;;40.00;;
4424;SDS011;2225;53.568;13.266;2024-03-02T00:38:48;75.90;;;40.50;;
4424;SDS011;2225;53.568;13.266;2024-03-02T00:41:29;68.70;;;39.23;;
4424;SDS011;2225;53.568;13.266;2024-03-02T00:43:58;77.20;;;41.63;;
4424;SDS011;2225;53.568;13.266;2024-03-02T00:46:34;81.33;;;41.83;;
4424;SDS011;2225;53.568;13.266;2024-03-02T00:49:16;71.03;;;38.57;;
4424;SDS011;2225;53.568;13.266;2024-03-02T00:51:52;71.10;;;40.23;;
4424;SDS011;2225;53.568;13.266;2024-03-02T00:54:21;73.50;;;41.33;;
4424;SDS011;2225;53.568;13.266;2024-03-02T00:56:51;70.60;;;40.00;;
4424;SDS011;2225;53.568;13.266;2024-03-02T00:59:22;74.87;;;39.70;;
4424;SDS011;2225;53.568;13.266;2024-03-02T01:01:50;67.97;;;38.97;;
4424;SDS011;2225;53.568;13.266;2024-03-02T01:04:17;73.87;;;40.93;;
4424;SDS011;2225;53.568;13.266;2024-03-02T01:06:44;77.77;;;41.50;;
4424;SDS011;2225;53.568;13.266;2024-03-02T01:09:12;77.60;;;42.23;;
4424;SDS011;2225;53.568;13.266;2024-03-02T01:11:39;74.70;;;40.40;;
4424;SDS011;2225;53.568;13.266;2024-03-02T01:14:06;78.37;;;44.10;;
4424;SDS011;2225;53.568;13.266;2024-03-02T01:16:33;81.63;;;42.80;;
4424;SDS011;2225;53.568;13.266;2024-03-02T01:19:00;72.43;;;40.67;;
4424;SDS011;2225;53.568;13.266;2024-03-02T01:21:27;62.83;;;34.77;;
4424;SDS011;2225;53.568;13.266;2024-03-02T01:23:54;66.20;;;36.10;;
4424;SDS011;2225;53.568;13.266;2024-03-02T01:26:21;65.17;;;35.80;;
4424;SDS011;2225;53.568;13.266;2024-03-02T01:28:48;65.27;;;37.90;;
4424;SDS011;2225;53.568;13.266;2024-03-02T01:31:15;69.10;;;38.90;;
4424;SDS011;2225;53.568;13.266;2024-03-02T01:33:42;68.47;;;38.77;;
4424;SDS011;2225;53.568;13.266;2024-03-02T01:36:09;65.43;;;39.80;;
4424;SDS011;2225;53.568;13.266;2024-03-02T01:38:36;73.47;;;36.70;;
4424;SDS011;2225;53.568;13.266;2024-03-02T01:41:03;70.07;;;38.63;;
4424;SDS011;2225;53.568;13.266;2024-03-02T01:43:30;65.27;;;33.47;;
4424;SDS011;2225;53.568;13.266;2024-03-02T01:45:57;49.87;;;31.50;;
4424;SDS011;2225;53.568;13.266;2024-03-02T01:48:24;46.23;;;29.37;;
4424;SDS011;2225;53.568;13.266;2024-03-02T01:50:51;51.27;;;31.47;;
4424;SDS011;2225;53.568;13.266;2024-03-02T01:53:18;48.40;;;29.23;;
4424;SDS011;2225;53.568;13.266;2024-03-02T01:55:45;45.23;;;28.83;;
4424;SDS011;2225;53.568;13.266;2024-03-02T01:58:12;53.90;;;33.70;;
4424;SDS011;2225;53.568;13.266;2024-03-02T02:00:39;67.37;;;36.77;;
4424;SDS011;2225;53.568;13.266;2024-03-02T02:03:07;74.10;;;40.47;;
4424;SDS011;2225;53.568;13.266;2024-03-02T02:05:34;77.30;;;40.57;;
4424;SDS011;2225;53.568;13.266;2024-03-02T02:08:01;76.50;;;40.00;;
4424;SDS011;2225;53.568;13.266;2024-03-02T02:10:28;76.20;;;40.10;;
4424;SDS011;2225;53.568;13.266;2024-03-02T02:12:55;79.93;;;42.20;;
4424;SDS011;2225;53.568;13.266;2024-03-02T02:15:26;68.83;;;37.40;;
4424;SDS011;2225;53.568;13.266;2024-03-02T02:17:55;81.17;;;40.67;;
4424;SDS011;2225;53.568;13.266;2024-03-02T02:20:23;87.23;;;44.07;;
4424;SDS011;2225;53.568;13.266;2024-03-02T02:25:25;67.10;;;37.47;;
4424;SDS011;2225;53.568;13.266;2024-03-02T02:27:53;70.93;;;38.63;;
4424;SDS011;2225;53.568;13.266;2024-03-02T02:30:25;67.17;;;38.33;;
4424;SDS011;2225;53.568;13.266;2024-03-02T02:32:54;73.57;;;40.00;;
4424;SDS011;2225;53.568;13.266;2024-03-02T02:35:22;67.40;;;40.03;;
4424;SDS011;2225;53.568;13.266;2024-03-02T02:37:50;71.03;;;39.00;;
4424;SDS011;2225;53.568;13.266;2024-03-02T02:40:20;65.90;;;37.13;;
4424;SDS011;2225;53.568;13.266;2024-03-02T02:42:47;61.90;;;36.00;;
4424;SDS011;2225;53.568;13.266;2024-03-02T02:45:15;65.77;;;38.77;;
4424;SDS011;2225;53.568;13.266;2024-03-02T02:47:42;69.90;;;39.60;;
4424;SDS011;2225;53.568;13.266;2024-03-02T02:50:11;70.70;;;38.30;;
4424;SDS011;2225;53.568;13.266;2024-03-02T02:52:39;68.43;;;39.87;;
4424;SDS011;2225;53.568;13.266;2024-03-02T02:55:08;70.20;;;40.80;;
4424;SDS011;2225;53.568;13.266;2024-03-02T02:57:41;70.10;;;38.97;;
4424;SDS011;2225;53.568;13.266;2024-03-02T03:00:11;72.33;;;39.80;;
4424;SDS011;2225;53.568;13.266;2024-03-02T03:02:48;80.47;;;41.00;;
4424;SDS011;2225;53.568;13.266;2024-03-02T03:05:17;75.63;;;41.70;;
4424;SDS011;2225;53.568;13.266;2024-03-02T03:07:45;79.57;;;43.03;;
4424;SDS011;2225;53.568;13.266;2024-03-02T03:10:14;78.17;;;41.43;;
4424;SDS011;2225;53.568;13.266;2024-03-02T03:12:41;69.00;;;38.90;;
4424;SDS011;2225;53.568;13.266;2024-03-02T03:15:10;84.90;;;43.60;;
4424;SDS011;2225;53.568;13.266;2024-03-02T03:17:37;85.80;;;45.17;;
4424;SDS011;2225;53.568;13.266;2024-03-02T03:20:05;79.17;;;42.80;;
4424;SDS011;2225;53.568;13.266;2024-03-02T03:22:36;75.83;;;42.47;;
4424;SDS011;2225;53.568;13.266;2024-03-02T03:25:04;77.27;;;41.60;;
4424;SDS011;2225;53.568;13.266;2024-03-02T03:27:33;86.47;;;44.77;;
4424;SDS011;2225;53.568;13.266;2024-03-02T03:30:00;83.50;;;43.80;;
4424;SDS011;2225;53.568;13.266;2024-03-02T03:32:27;85.53;;;44.00;;
4424;SDS011;2225;53.568;13.266;2024-03-02T03:34:54;83.70;;;44.63;;
4424;SDS011;2225;53.568;13.266;2024-03-02T03:37:21;75.40;;;41.17;;
4424;SDS011;2225;53.568;13.266;2024-03-02T03:39:48;78.40;;;42.70;;
4424;SDS011;2225;53.568;13.266;2024-03-02T03:42:15;74.03;;;40.53;;
4424;SDS011;2225;53.568;13.266;2024-03-02T03:44:42;67.60;;;40.20;;
4424;SDS011;2225;53.568;13.266;2024-03-02T03:47:09;78.77;;;42.90;;
4424;SDS011;2225;53.568;13.266;2024-03-02T03:49:36;71.90;;;41.47;;
4424;SDS011;2225;53.568;13.266;2024-03-02T03:52:03;67.97;;;41.43;;
4424;SDS011;2225;53.568;13.266;2024-03-02T03:54:30;72.37;;;40.60;;
4424;SDS011;2225;53.568;13.266;2024-03-02T03:56:57;68.17;;;40.30;;
4424;SDS011;2225;53.568;13.266;2024-03-02T03:59:24;70.60;;;40.97;;
4424;SDS011;2225;53.568;13.266;2024-03-02T04:01:51;68.40;;;39.60;;
4424;SDS011;2225;53.568;13.266;2024-03-02T04:04:19;67.50;;;41.30;;
4424;SDS011;2225;53.568;13.266;2024-03-02T04:06:46;74.70;;;41.97;;
4424;SDS011;2225;53.568;13.266;2024-03-02T04:09:13;78.93;;;42.67;;
4424;SDS011;2225;53.568;13.266;2024-03-02T04:11:40;66.67;;;40.83;;
4424;SDS011;2225;53.568;13.266;2024-03-02T04:14:07;77.30;;;42.33;;
4424;SDS011;2225;53.568;13.266;2024-03-02T04:16:34;74.80;;;41.40;;
4424;SDS011;2225;53.568;13.266;2024-03-02T04:19:01;81.10;;;42.63;;
4424;SDS011;2225;53.568;13.266;2024-03-02T04:21:28;71.10;;;42.27;;
4424;SDS011;2225;53.568;13.266;2024-03-02T04:23:55;69.47;;;41.30;;
4424;SDS011;2225;53.568;13.266;2024-03-02T04:26:25;68.47;;;42.37;;
4424;SDS011;2225;53.568;13.266;2024-03-02T04:28:53;78.77;;;45.97;;
4424;SDS011;2225;53.568;13.266;2024-03-02T04:31:20;72.33;;;43.03;;
4424;SDS011;2225;53.568;13.266;2024-03-02T04:33:47;75.47;;;42.53;;
4424;SDS011;2225;53.568;13.266;2024-03-02T04:36:14;71.10;;;40.90;;
4424;SDS011;2225;53.568;13.266;2024-03-02T04:38:41;76.00;;;41.03;;
4424;SDS011;2225;53.568;13.266;2024-03-02T04:41:08;73.50;;;42.87;;
4424;SDS011;2225;53.568;13.266;2024-03-02T04:43:35;81.63;;;45.00;;
4424;SDS011;2225;53.568;13.266;2024-03-02T04:46:02;68.40;;;39.93;;
4424;SDS011;2225;53.568;13.266;2024-03-02T04:48:29;68.10;;;39.23;;
4424;SDS011;2225;53.568;13.266;2024-03-02T04:50:56;78.90;;;40.83;;
4424;SDS011;2225;53.568;13.266;2024-03-02T04:53:23;65.10;;;39.53;;
4424;SDS011;2225;53.568;13.266;2024-03-02T04:55:50;59.67;;;36.47;;
4424;SDS011;2225;53.568;13.266;2024-03-02T04:58:35;62.60;;;37.27;;
4424;SDS011;2225;53.568;13.266;2024-03-02T05:01:02;71.10;;;40.03;;
4424;SDS011;2225;53.568;13.266;2024-03-02T05:03:29;75.03;;;41.37;;
4424;SDS011;2225;53.568;13.266;2024-03-02T05:05:56;75.47;;;43.00;;
4424;SDS011;2225;53.568;13.266;2024-03-02T05:08:23;71.30;;;42.97;;
4424;SDS011;2225;53.568;13.266;2024-03-02T05:10:50;70.90;;;40.30;;
4424;SDS011;2225;53.568;13.266;2024-03-02T05:13:17;76.20;;;40.67;;
4424;SDS011;2225;53.568;13.266;2024-03-02T05:15:44;65.60;;;40.60;;
4424;SDS011;2225;53.568;13.266;2024-03-02T05:18:12;64.73;;;40.60;;
4424;SDS011;2225;53.568;13.266;2024-03-02T05:20:39;69.90;;;40.50;;
4424;SDS011;2225;53.568;13.266;2024-03-02T05:23:06;66.87;;;39.77;;
4424;SDS011;2225;53.568;13.266;2024-03-02T05:25:32;67.53;;;39.03;;
4424;SDS011;2225;53.568;13.266;2024-03-02T05:28:01;71.97;;;38.33;;
4424;SDS011;2225;53.568;13.266;2024-03-02T05:30:28;65.33;;;38.53;;
4424;SDS011;2225;53.568;13.266;2024-03-02T05:32:55;66.50;;;39.00;;
4424;SDS011;2225;53.568;13.266;2024-03-02T05:35:22;75.13;;;42.47;;
4424;SDS011;2225;53.568;13.266;2024-03-02T05:37:49;65.70;;;38.80;;
4424;SDS011;2225;53.568;13.266;2024-03-02T05:40:16;69.30;;;39.03;;
4424;SDS011;2225;53.568;13.266;2024-03-02T05:42:44;68.17;;;41.43;;
4424;SDS011;2225;53.568;13.266;2024-03-02T05:45:11;71.70;;;40.77;;
4424;SDS011;2225;53.568;13.266;2024-03-02T05:47:38;66.10;;;38.63;;
4424;SDS011;2225;53.568;13.266;2024-03-02T05:50:05;70.60;;;39.67;;
4424;SDS011;2225;53.568;13.266;2024-03-02T05:52:33;69.83;;;40.93;;
4424;SDS011;2225;53.568;13.266;2024-03-02T05:55:00;65.67;;;38.80;;
4424;SDS011;2225;53.568;13.266;2024-03-02T05:57:27;64.47;;;39.40;;
4424;SDS011;2225;53.568;13.266;2024-03-02T06:00:23;66.40;;;39.20;;
4424;SDS011;2225;53.568;13.266;2024-03-02T06:02:50;66.33;;;39.70;;
4424;SDS011;2225;53.568;13.266;2024-03-02T06:05:17;71.63;;;40.67;;
4424;SDS011;2225;53.568;13.266;2024-03-02T06:07:45;66.90;;;38.80;;
4424;SDS011;2225;53.568;13.266;2024-03-02T06:10:12;70.77;;;40.07;;
4424;SDS011;2225;53.568;13.266;2024-03-02T06:12:40;67.90;;;39.87;;
4424;SDS011;2225;53.568;13.266;2024-03-02T06:15:07;70.83;;;43.10;;
4424;SDS011;2225;53.568;13.266;2024-03-02T06:17:35;70.80;;;40.77;;
4424;SDS011;2225;53.568;13.266;2024-03-02T06:20:02;76.17;;;43.77;;
4424;SDS011;2225;53.568;13.266;2024-03-02T06:22:29;64.80;;;39.47;;
4424;SDS011;2225;53.568;13.266;2024-03-02T06:24:56;64.27;;;40.17;;
4424;SDS011;2225;53.568;13.266;2024-03-02T06:27:23;69.83;;;43.00;;
4424;SDS011;2225;53.568;13.266;2024-03-02T06:29:50;76.97;;;44.87;;
4424;SDS011;2225;53.568;13.266;2024-03-02T06:32:17;76.83;;;47.67;;
4424;SDS011;2225;53.568;13.266;2024-03-02T06:34:44;86.77;;;48.63;;
4424;SDS011;2225;53.568;13.266;2024-03-02T06:37:11;86.07;;;50.87;;
4424;SDS011;2225;53.568;13.266;2024-03-02T06:39:39;84.97;;;47.13;;
4424;SDS011;2225;53.568;13.266;2024-03-02T06:42:06;88.83;;;51.37;;
4424;SDS011;2225;53.568;13.266;2024-03-02T06:44:33;81.77;;;49.30;;
4424;SDS011;2225;53.568;13.266;2024-03-02T06:47:00;80.63;;;49.83;;
4424;SDS011;2225;53.568;13.266;2024-03-02T06:49:27;87.20;;;51.17;;
4424;SDS011;2225;53.568;13.266;2024-03-02T06:51:54;80.53;;;48.80;;
4424;SDS011;2225;53.568;13.266;2024-03-02T06:54:22;81.77;;;48.80;;
4424;SDS011;2225;53.568;13.266;2024-03-02T06:56:49;86.90;;;51.50;;
4424;SDS011;2225;53.568;13.266;2024-03-02T06:59:16;85.57;;;48.67;;
4424;SDS011;2225;53.568;13.266;2024-03-02T07:01:43;93.20;;;52.47;;
4424;SDS011;2225;53.568;13.266;2024-03-02T07:04:10;108.00;;;57.77;;
4424;SDS011;2225;53.568;13.266;2024-03-02T07:06:37;95.20;;;56.40;;
4424;SDS011;2225;53.568;13.266;2024-03-02T07:09:05;96.30;;;55.93;;
4424;SDS011;2225;53.568;13.266;2024-03-02T07:11:33;102.10;;;61.40;;
4424;SDS011;2225;53.568;13.266;2024-03-02T07:14:00;107.17;;;63.17;;
4424;SDS011;2225;53.568;13.266;2024-03-02T07:16:27;101.30;;;60.83;;
4424;SDS011;2225;53.568;13.266;2024-03-02T07:18:56;104.73;;;60.63;;
4424;SDS011;2225;53.568;13.266;2024-03-02T07:21:23;105.97;;;58.87;;
4424;SDS011;2225;53.568;13.266;2024-03-02T07:23:50;116.83;;;59.50;;
4424;SDS011;2225;53.568;13.266;2024-03-02T07:26:17;101.53;;;55.30;;
4424;SDS011;2225;53.568;13.266;2024-03-02T07:28:47;115.40;;;58.73;;
4424;SDS011;2225;53.568;13.266;2024-03-02T07:31:15;100.50;;;55.93;;
4424;SDS011;2225;53.568;13.266;2024-03-02T07:33:45;103.77;;;56.67;;
4424;SDS011;2225;53.568;13.266;2024-03-02T07:36:15;100.93;;;57.43;;
4424;SDS011;2225;53.568;13.266;2024-03-02T07:38:42;105.40;;;58.10;;
4424;SDS011;2225;53.568;13.266;2024-03-02T07:41:10;98.97;;;55.83;;
4424;SDS011;2225;53.568;13.266;2024-03-02T07:43:38;93.17;;;56.00;;
4424;SDS011;2225;53.568;13.266;2024-03-02T07:46:05;108.23;;;61.77;;
4424;SDS011;2225;53.568;13.266;2024-03-02T07:48:32;107.93;;;61.50;;
4424;SDS011;2225;53.568;13.266;2024-03-02T07:50:59;97.80;;;55.60;;
4424;SDS011;2225;53.568;13.266;2024-03-02T07:53:28;97.47;;;51.83;;
4424;SDS011;2225;53.568;13.266;2024-03-02T07:55:55;97.23;;;55.40;;
4424;SDS011;2225;53.568;13.266;2024-03-02T07:58:28;92.27;;;53.67;;
4424;SDS011;2225;53.568;13.266;2024-03-02T08:00:56;93.67;;;53.13;;
4424;SDS011;2225;53.568;13.266;2024-03-02T08:03:23;95.50;;;53.57;;
4424;SDS011;2225;53.568;13.266;2024-03-02T08:05:50;82.83;;;49.10;;
4424;SDS011;2225;53.568;13.266;2024-03-02T08:08:17;86.47;;;50.97;;
4424;SDS011;2225;53.568;13.266;2024-03-02T08:10:44;94.67;;;52.33;;
4424;SDS011;2225;53.568;13.266;2024-03-02T08:13:11;85.50;;;49.87;;
4424;SDS011;2225;53.568;13.266;2024-03-02T08:15:38;90.57;;;51.47;;
4424;SDS011;2225;53.568;13.266;2024-03-02T08:18:05;97.23;;;53.40;;
4424;SDS011;2225;53.568;13.266;2024-03-02T08:20:32;92.80;;;52.67;;
4424;SDS011;2225;53.568;13.266;2024-03-02T08:22:59;94.13;;;50.97;;
4424;SDS011;2225;53.568;13.266;2024-03-02T08:25:26;91.90;;;50.87;;
4424;SDS011;2225;53.568;13.266;2024-03-02T08:27:53;83.30;;;50.77;;
4424;SDS011;2225;53.568;13.266;2024-03-02T08:30:21;88.47;;;50.73;;
4424;SDS011;2225;53.568;13.266;2024-03-02T08:32:48;77.93;;;48.20;;
4424;SDS011;2225;53.568;13.266;2024-03-02T08:35:15;88.43;;;50.20;;
4424;SDS011;2225;53.568;13.266;2024-03-02T08:37:42;91.80;;;50.40;;
4424;SDS011;2225;53.568;13.266;2024-03-02T08:40:09;89.77;;;50.23;;
4424;SDS011;2225;53.568;13.266;2024-03-02T08:42:41;89.80;;;51.10;;
4424;SDS011;2225;53.568;13.266;2024-03-02T08:45:08;92.23;;;52.00;;
4424;SDS011;2225;53.568;13.266;2024-03-02T08:47:35;98.10;;;53.40;;
4424;SDS011;2225;53.568;13.266;2024-03-02T08:50:03;93.63;;;53.30;;
4424;SDS011;2225;53.568;13.266;2024-03-02T08:52:31;106.70;;;57.30;;
4424;SDS011;2225;53.568;13.266;2024-03-02T08:54:58;103.93;;;55.20;;
4424;SDS011;2225;53.568;13.266;2024-03-02T08:57:25;110.40;;;59.70;;
4424;SDS011;2225;53.568;13.266;2024-03-02T08:59:52;105.33;;;54.03;;
4424;SDS011;2225;53.568;13.266;2024-03-02T09:02:19;103.03;;;54.93;;
4424;SDS011;2225;53.568;13.266;2024-03-02T09:04:46;93.50;;;54.17;;
4424;SDS011;2225;53.568;13.266;2024-03-02T09:07:13;96.47;;;55.37;;
4424;SDS011;2225;53.568;13.266;2024-03-02T09:09:40;111.23;;;57.17;;
4424;SDS011;2225;53.568;13.266;2024-03-02T09:12:07;116.53;;;59.80;;
4424;SDS011;2225;53.568;13.266;2024-03-02T09:14:34;123.33;;;61.00;;
4424;SDS011;2225;53.568;13.266;2024-03-02T09:17:02;122.47;;;60.90;;
4424;SDS011;2225;53.568;13.266;2024-03-02T09:19:30;113.70;;;58.00;;
4424;SDS011;2225;53.568;13.266;2024-03-02T09:21:56;120.07;;;58.57;;
4424;SDS011;2225;53.568;13.266;2024-03-02T09:24:25;99.90;;;55.80;;
4424;SDS011;2225;53.568;13.266;2024-03-02T09:26:52;113.93;;;56.17;;
4424;SDS011;2225;53.568;13.266;2024-03-02T09:29:19;106.87;;;55.33;;
4424;SDS011;2225;53.568;13.266;2024-03-02T09:31:47;111.27;;;56.07;;
4424;SDS011;2225;53.568;13.266;2024-03-02T09:34:14;109.70;;;59.37;;
4424;SDS011;2225;53.568;13.266;2024-03-02T09:36:42;119.77;;;59.63;;
4424;SDS011;2225;53.568;13.266;2024-03-02T09:39:09;108.87;;;57.00;;
4424;SDS011;2225;53.568;13.266;2024-03-02T09:41:37;99.60;;;54.10;;
4424;SDS011;2225;53.568;13.266;2024-03-02T09:44:05;98.53;;;55.30;;
4424;SDS011;2225;53.568;13.266;2024-03-02T09:46:32;112.40;;;56.77;;
4424;SDS011;2225;53.568;13.266;2024-03-02T09:48:59;111.83;;;57.27;;
4424;SDS011;2225;53.568;13.266;2024-03-02T09:51:26;108.80;;;55.80;;
4424;SDS011;2225;53.568;13.266;2024-03-02T09:53:54;105.27;;;56.27;;
4424;SDS011;2225;53.568;13.266;2024-03-02T09:56:28;110.47;;;57.03;;
4424;SDS011;2225;53.568;13.266;2024-03-02T09:58:55;112.60;;;60.53;;
4424;SDS011;2225;53.568;13.266;2024-03-02T10:01:22;111.17;;;60.30;;
4424;SDS011;2225;53.568;13.266;2024-03-02T10:03:49;117.80;;;59.60;;
4424;SDS011;2225;53.568;13.266;2024-03-02T10:06:21;121.30;;;61.97;;
4424;SDS011;2225;53.568;13.266;2024-03-02T10:08:49;104.17;;;57.33;;
4424;SDS011;2225;53.568;13.266;2024-03-02T10:11:32;124.73;;;59.97;;
4424;SDS011;2225;53.568;13.266;2024-03-02T10:14:09;113.63;;;58.77;;
4424;SDS011;2225;53.568;13.266;2024-03-02T10:19:20;110.83;;;60.50;;
4424;SDS011;2225;53.568;13.266;2024-03-02T10:21:52;117.17;;;60.07;;
4424;SDS011;2225;53.568;13.266;2024-03-02T10:24:21;112.80;;;58.00;;
4424;SDS011;2225;53.568;13.266;2024-03-02T10:26:49;110.17;;;57.77;;
4424;SDS011;2225;53.568;13.266;2024-03-02T10:29:16;117.03;;;58.63;;
4424;SDS011;2225;53.568;13.266;2024-03-02T10:31:44;108.43;;;58.47;;
4424;SDS011;2225;53.568;13.266;2024-03-02T10:34:12;129.60;;;58.50;;
4424;SDS011;2225;53.568;13.266;2024-03-02T10:36:41;105.80;;;57.90;;
4424;SDS011;2225;53.568;13.266;2024-03-02T10:39:09;106.80;;;54.40;;
4424;SDS011;2225;53.568;13.266;2024-03-02T10:41:37;104.27;;;54.37;;
4424;SDS011;2225;53.568;13.266;2024-03-02T10:44:05;113.87;;;57.00;;
4424;SDS011;2225;53.568;13.266;2024-03-02T10:46:34;104.20;;;57.17;;
4424;SDS011;2225;53.568;13.266;2024-03-02T10:49:05;98.77;;;54.60;;
4424;SDS011;2225;53.568;13.266;2024-03-02T10:51:34;109.83;;;55.17;;
4424;SDS011;2225;53.568;13.266;2024-03-02T10:54:05;104.83;;;53.53;;
4424;SDS011;2225;53.568;13.266;2024-03-02T10:56:39;99.67;;;56.73;;
4424;SDS011;2225;53.568;13.266;2024-03-02T11:01:56;106.80;;;55.50;;
4424;SDS011;2225;53.568;13.266;2024-03-02T11:04:30;99.90;;;54.70;;
4424;SDS011;2225;53.568;13.266;2024-03-02T11:07:07;104.70;;;54.60;;
4424;SDS011;2225;53.568;13.266;2024-03-02T11:09:49;100.13;;;55.73;;
4424;SDS011;2225;53.568;13.266;2024-03-02T11:12:29;91.17;;;51.50;;
4424;SDS011;2225;53.568;13.266;2024-03-02T11:14:58;94.13;;;52.70;;
4424;SDS011;2225;53.568;13.266;2024-03-02T11:17:26;99.13;;;52.17;;
4424;SDS011;2225;53.568;13.266;2024-03-02T11:19:54;87.33;;;47.33;;
4424;SDS011;2225;53.568;13.266;2024-03-02T11:22:22;94.63;;;52.07;;
4424;SDS011;2225;53.568;13.266;2024-03-02T11:24:49;81.17;;;48.10;;
4424;SDS011;2225;53.568;13.266;2024-03-02T11:33:12;78.00;;;43.83;;
4424;SDS011;2225;53.568;13.266;2024-03-02T11:35:42;79.30;;;46.07;;
4424;SDS011;2225;53.568;13.266;2024-03-02T11:38:13;77.47;;;42.13;;
4424;SDS011;2225;53.568;13.266;2024-03-02T11:40:40;67.60;;;40.93;;
4424;SDS011;2225;53.568;13.266;2024-03-02T11:43:07;71.67;;;42.33;;
4424;SDS011;2225;53.568;13.266;2024-03-02T11:45:36;67.67;;;38.93;;
4424;SDS011;2225;53.568;13.266;2024-03-02T11:48:08;74.13;;;40.00;;
4424;SDS011;2225;53.568;13.266;2024-03-02T11:50:40;67.10;;;38.50;;
4424;SDS011;2225;53.568;13.266;2024-03-02T11:53:16;69.00;;;37.30;;
4424;SDS011;2225;53.568;13.266;2024-03-02T11:55:45;72.43;;;35.67;;
4424;SDS011;2225;53.568;13.266;2024-03-02T11:58:13;61.70;;;32.90;;
4424;SDS011;2225;53.568;13.266;2024-03-02T12:00:46;64.43;;;34.27;;
4424;SDS011;2225;53.568;13.266;2024-03-02T12:03:13;51.47;;;32.97;;
4424;SDS011;2225;53.568;13.266;2024-03-02T12:05:42;61.07;;;32.87;;
4424;SDS011;2225;53.568;13.266;2024-03-02T12:08:09;53.93;;;31.90;;
4424;SDS011;2225;53.568;13.266;2024-03-02T12:10:38;57.93;;;33.23;;
4424;SDS011;2225;53.568;13.266;2024-03-02T12:13:06;52.67;;;32.67;;
4424;SDS011;2225;53.568;13.266;2024-03-02T12:15:34;52.90;;;30.07;;
4424;SDS011;2225;53.568;13.266;2024-03-02T12:18:03;53.73;;;31.57;;
4424;SDS011;2225;53.568;13.266;2024-03-02T12:20:32;61.83;;;30.60;;
4424;SDS011;2225;53.568;13.266;2024-03-02T12:23:00;46.80;;;27.60;;
4424;SDS011;2225;53.568;13.266;2024-03-02T12:25:29;44.83;;;25.03;;
4424;SDS011;2225;53.568;13.266;2024-03-02T12:27:58;40.00;;;23.20;;
4424;SDS011;2225;53.568;13.266;2024-03-02T12:30:29;43.93;;;22.87;;
4424;SDS011;2225;53.568;13.266;2024-03-02T12:32:57;38.47;;;22.70;;
4424;SDS011;2225;53.568;13.266;2024-03-02T12:35:25;35.90;;;21.50;;
4424;SDS011;2225;53.568;13.266;2024-03-02T12:37:52;36.77;;;23.30;;
4424;SDS011;2225;53.568;13.266;2024-03-02T12:40:20;41.03;;;23.00;;
4424;SDS011;2225;53.568;13.266;2024-03-02T12:42:49;39.27;;;22.50;;
4424;SDS011;2225;53.568;13.266;2024-03-02T12:45:17;42.73;;;24.50;;
4424;SDS011;2225;53.568;13.266;2024-03-02T12:47:52;43.80;;;23.07;;
4424;SDS011;2225;53.568;13.266;2024-03-02T12:50:20;43.00;;;24.50;;
4424;SDS011;2225;53.568;13.266;2024-03-02T12:52:51;54.10;;;28.27;;
4424;SDS011;2225;53.568;13.266;2024-03-02T12:55:19;49.70;;;29.40;;
4424;SDS011;2225;53.568;13.266;2024-03-02T12:57:51;47.50;;;27.53;;
4424;SDS011;2225;53.568;13.266;2024-03-02T13:00:20;40.60;;;25.17;;
4424;SDS011;2225;53.568;13.266;2024-03-02T13:02:49;49.23;;;26.53;;
4424;SDS011;2225;53.568;13.266;2024-03-02T13:05:18;45.80;;;27.53;;
4424;SDS011;2225;53.568;13.266;2024-03-02T13:07:49;40.60;;;25.17;;
4424;SDS011;2225;53.568;13.266;2024-03-02T13:10:16;40.90;;;25.10;;
4424;SDS011;2225;53.568;13.266;2024-03-02T13:12:45;42.07;;;26.43;;
4424;SDS011;2225;53.568;13.266;2024-03-02T13:15:12;44.13;;;26.27;;
4424;SDS011;2225;53.568;13.266;2024-03-02T13:17:44;44.23;;;26.30;;
4424;SDS011;2225;53.568;13.266;2024-03-02T13:20:14;44.00;;;24.93;;
4424;SDS011;2225;53.568;13.266;2024-03-02T13:22:42;43.07;;;25.60;;
4424;SDS011;2225;53.568;13.266;2024-03-02T13:25:09;39.03;;;24.80;;
4424;SDS011;2225;53.568;13.266;2024-03-02T13:27:38;42.00;;;24.10;;
4424;SDS011;2225;53.568;13.266;2024-03-02T13:30:05;44.23;;;24.20;;
4424;SDS011;2225;53.568;13.266;2024-03-02T13:32:34;40.10;;;25.37;;
4424;SDS011;2225;53.568;13.266;2024-03-02T13:35:01;42.73;;;25.47;;
4424;SDS011;2225;53.568;13.266;2024-03-02T13:37:29;40.10;;;24.17;;
4424;SDS011;2225;53.568;13.266;2024-03-02T13:39:56;43.70;;;26.60;;
4424;SDS011;2225;53.568;13.266;2024-03-02T13:42:23;42.00;;;24.40;;
4424;SDS011;2225;53.568;13.266;2024-03-02T13:44:50;38.27;;;26.17;;
4424;SDS011;2225;53.568;13.266;2024-03-02T13:47:18;44.70;;;25.70;;
4424;SDS011;2225;53.568;13.266;2024-03-02T13:49:45;47.10;;;23.93;;
4424;SDS011;2225;53.568;13.266;2024-03-02T13:52:15;40.30;;;25.00;;
4424;SDS011;2225;53.568;13.266;2024-03-02T13:54:45;42.47;;;24.40;;
4424;SDS011;2225;53.568;13.266;2024-03-02T13:57:13;44.50;;;25.50;;
4424;SDS011;2225;53.568;13.266;2024-03-02T13:59:40;38.80;;;23.30;;
4424;SDS011;2225;53.568;13.266;2024-03-02T14:02:09;39.63;;;24.00;;
4424;SDS011;2225;53.568;13.266;2024-03-02T14:04:37;52.70;;;28.10;;
4424;SDS011;2225;53.568;13.266;2024-03-02T14:07:05;40.27;;;24.57;;
4424;SDS011;2225;53.568;13.266;2024-03-02T14:09:33;42.17;;;25.57;;
4424;SDS011;2225;53.568;13.266;2024-03-02T14:12:01;39.33;;;24.10;;
4424;SDS011;2225;53.568;13.266;2024-03-02T14:14:30;43.33;;;25.70;;
4424;SDS011;2225;53.568;13.266;2024-03-02T14:16:57;44.43;;;22.87;;
4424;SDS011;2225;53.568;13.266;2024-03-02T14:19:29;43.90;;;26.77;;
4424;SDS011;2225;53.568;13.266;2024-03-02T14:21:56;41.67;;;24.80;;
4424;SDS011;2225;53.568;13.266;2024-03-02T14:24:24;38.73;;;24.53;;
4424;SDS011;2225;53.568;13.266;2024-03-02T14:26:52;43.27;;;24.83;;
4424;SDS011;2225;53.568;13.266;2024-03-02T14:29:28;54.63;;;31.37;;
4424;SDS011;2225;53.568;13.266;2024-03-02T14:31:55;44.37;;;27.23;;
4424;SDS011;2225;53.568;13.266;2024-03-02T14:34:22;48.00;;;28.67;;
4424;SDS011;2225;53.568;13.266;2024-03-02T14:36:49;38.87;;;26.00;;
4424;SDS011;2225;53.568;13.266;2024-03-02T14:39:16;44.30;;;27.00;;
4424;SDS011;2225;53.568;13.266;2024-03-02T14:41:45;46.23;;;27.17;;
4424;SDS011;2225;53.568;13.266;2024-03-02T14:44:12;46.93;;;28.00;;
4424;SDS011;2225;53.568;13.266;2024-03-02T14:46:39;52.60;;;28.33;;
4424;SDS011;2225;53.568;13.266;2024-03-02T14:49:08;43.80;;;27.00;;
4424;SDS011;2225;53.568;13.266;2024-03-02T14:51:37;47.60;;;26.87;;
4424;SDS011;2225;53.568;13.266;2024-03-02T14:54:04;44.77;;;27.33;;